Sharon, Massachusetts
Current Conditions -  °F | °C
As of 3:53 PM on Saturday 22 Nov 2014 (Local Time) from KOWD Reporting Station
Clear Clear  
Wind Chill: 36°   Ceiling: Unl
Heat Index: 42°   Visibility: 10mi
Dew Point: 13°   Wind: 10mph
Humidity: 31%   Direction: 210°SSW
Pressure: 30.17"   Gusts: 18mph
Location:  42.12°N, 71.18°W
Report Text: KOWD 222053Z 21009G16KT 10SM CLR 06/M11 A3017 RMK AO2 SLP216 T00561106 56020
Loading
Personal Weather Stations






























Interactive Weather Map New forecast layout! Learn more

10-Day Weather Forecast

Advertisements
Track Severe Weather on mobile